Latest Weather Observations for Kuitpo

IDS60901

Issued at 10:31 pm CST Friday 22 May 2015 (issued every 10 minutes, with the page automatically refreshed every 10 minutes)

About weather observations | Map of Adelaide area stations | Latest observations for Adelaide area | Other Formats
Station Details ID: 023887 Name: KUITPO FOREST RESERVE Lat: -35.17 Lon: 138.68 Height: 365.0 m
Data from the previous 72 hours. | See also: Recent months at Kuitpo
Date/Time
CST
Tmp

°C
App
Tmp
°C
Dew
Point
°C
Rel
Hum
%
Delta-T

°C
Wind Press
QNH
hPa
Press
MSL
hPa
Rain
since
9 am
mm
Dir
 
Spd
km/h
Gust
km/h
Spd
kts
Gust
kts
22/10:30pm 7.6 3.8 7.6 100 0.0 ESE 17 24 9 13 1030.1 1030.0 0.0
22/10:00pm 7.6 4.2 7.6 100 0.0 E 15 20 8 11 1030.2 1030.1 0.0
22/09:30pm 7.5 3.1 7.5 100 0.0 ESE 20 26 11 14 1030.0 1029.9 0.0
22/09:00pm 7.5 4.1 7.5 100 0.0 E 15 20 8 11 1030.1 1030.0 0.0
22/08:30pm 7.6 3.8 7.6 100 0.0 ESE 17 22 9 12 1030.0 1029.9 0.0
22/08:00pm 7.8 4.1 7.8 100 0.0 ESE 17 22 9 12 1030.1 1030.0 0.0
22/07:30pm 8.0 4.3 8.0 100 0.0 ESE 17 24 9 13 1029.9 1029.8 0.0
22/07:00pm 8.2 4.6 8.2 100 0.0 ESE 17 24 9 13 1029.8 1029.7 0.0
22/06:30pm 8.7 5.9 8.7 100 0.0 ESE 13 24 7 13 1029.8 1029.7 0.0
22/06:00pm 9.0 6.3 9.0 100 0.0 ESE 13 20 7 11 1029.8 1029.7 0.0
22/05:30pm 9.2 6.5 9.1 99 0.0 SE 13 30 7 16 1029.8 1029.7 0.0
22/05:00pm 9.6 8.2 9.6 100 0.0 SSE 7 13 4 7 1029.9 1029.8 0.0
22/04:30pm 9.9 7.7 9.4 97 0.3 SE 11 20 6 11 1030.0 1029.9 0.0
22/04:00pm 10.2 7.5 9.0 92 0.6 SE 13 19 7 10 1029.9 1029.8 0.0
22/03:30pm 10.5 8.2 9.1 91 0.7 SSE 11 19 6 10 1029.8 1029.7 0.0
22/03:00pm 10.8 8.7 9.9 94 0.5 SSE 11 20 6 11 1029.6 1029.5 0.0
22/02:30pm 10.9 8.8 9.8 93 0.6 SE 11 20 6 11 1029.6 1029.5 0.0
22/02:00pm 10.7 8.0 9.1 90 0.8 SSE 13 22 7 12 1029.7 1029.6 0.0
22/01:30pm 10.9 8.8 9.8 93 0.6 SSE 11 17 6 9 1029.8 1029.7 0.0
22/01:00pm 11.2 8.9 10.3 94 0.5 SE 13 19 7 10 1029.8 1029.7 0.0
22/12:30pm 10.9 8.0 9.7 92 0.6 ESE 15 22 8 12 1029.9 1029.8 0.0
22/12:00pm 11.3 8.1 9.9 91 0.7 ESE 17 26 9 14 1030.0 1029.9 0.0
22/11:30am 11.1 7.5 9.7 91 0.7 ESE 19 32 10 17 1030.4 1030.3 0.0
22/11:00am 10.9 7.7 10.0 94 0.5 E 17 26 9 14 1030.7 1030.6 0.0
22/10:30am 10.7 6.9 9.8 94 0.5 ESE 20 37 11 20 1030.4 1030.3 0.0
22/10:00am 10.1 6.0 10.1 100 0.0 ESE 22 35 12 19 1030.2 1030.1 0.0
22/09:30am 9.4 4.7 9.4 100 0.0 ESE 24 37 13 20 1029.9 1029.8 0.0
22/09:00am 8.9 3.0 8.9 100 0.0 ESE 30 41 16 22 1029.6 1029.5 1.6
22/08:30am 8.5 2.8 8.5 100 0.0 ESE 28 39 15 21 1029.4 1029.3 1.6
22/08:00am 7.9 2.1 7.9 100 0.0 ESE 28 41 15 22 1029.2 1029.1 1.6
22/07:30am 7.5 1.2 7.5 100 0.0 ESE 30 41 16 22 1028.9 1028.8 1.6
22/07:00am 7.5 2.0 7.5 100 0.0 ESE 26 37 14 20 1028.7 1028.6 1.6
22/06:30am 7.7 2.6 7.7 100 0.0 ESE 24 35 13 19 1028.3 1028.2 1.6
22/06:00am 8.2 4.2 8.2 100 0.0 ESE 19 28 10 15 1028.2 1028.0 1.6
22/05:30am 8.2 4.0 8.2 100 0.0 ESE 20 28 11 15 1028.1 1027.9 1.4
22/05:00am 8.4 4.4 8.4 100 0.0 ESE 19 26 10 14 1028.1 1027.9 1.4
22/04:30am 8.6 5.4 8.6 100 0.0 ESE 15 22 8 12 1027.8 1027.6 1.4
22/04:00am 8.5 4.9 8.5 100 0.0 SE 17 24 9 13 1027.6 1027.5 1.4
22/03:30am 8.7 5.6 8.7 100 0.0 ESE 15 22 8 12 1027.6 1027.5 1.4
22/03:00am 8.8 6.8 8.8 100 0.0 SE 9 15 5 8 1027.8 1027.6 1.4
22/02:30am 8.8 6.8 8.8 100 0.0 ESE 9 15 5 8 1027.6 1027.5 1.4
22/02:00am 8.8 6.4 8.8 100 0.0 SE 11 19 6 10 1027.8 1027.6 1.2
22/01:30am 8.8 6.8 8.8 100 0.0 SE 9 17 5 9 1027.6 1027.5 1.2
22/01:00am 8.7 6.3 8.7 100 0.0 SE 11 19 6 10 1027.6 1027.5 1.2
22/12:30am 8.7 6.7 8.7 100 0.0 SE 9 13 5 7 1027.9 1027.7 1.2
22/12:00am 8.6 6.6 8.6 100 0.0 SSE 9 17 5 9 1027.8 1027.6 1.2
 
Date/Time
CST
Tmp

°C
App
Tmp
°C
Dew
Point
°C
Rel
Hum
%
Delta-T

°C
Wind Press
QNH
hPa
Press
MSL
hPa
Rain
since
9 am
mm
Dir
 
Spd
km/h
Gust
km/h
Spd
kts
Gust
kts
21/11:30pm 8.3 6.2 8.3 100 0.0 S 9 15 5 8 1027.8 1027.6 1.0
21/11:00pm 8.3 6.6 8.3 100 0.0 S 7 13 4 7 1028.0 1027.8 1.0
21/10:30pm 7.8 5.6 7.8 100 0.0 SSW 9 13 5 7 1028.0 1027.8 0.6
21/10:00pm 8.2 6.1 8.2 100 0.0 S 9 15 5 8 1028.1 1027.9 0.6
21/09:30pm 8.2 6.1 8.2 100 0.0 S 9 13 5 7 1028.1 1027.9 0.6
21/09:00pm 8.0 5.8 8.0 100 0.0 S 9 15 5 8 1028.0 1027.8 0.2
21/08:30pm 7.8 5.6 7.8 100 0.0 S 9 13 5 7 1027.8 1027.6 0.2
21/08:00pm 7.8 5.6 7.8 100 0.0 S 9 13 5 7 1027.6 1027.5 0.2
21/07:30pm 7.9 6.1 7.9 100 0.0 SSW 7 11 4 6 1027.5 1027.4 0.2
21/07:00pm 8.0 5.8 8.0 100 0.0 SSW 9 11 5 6 1027.3 1027.2 0.2
21/06:30pm 8.0 5.8 8.0 100 0.0 S 9 13 5 7 1027.1 1027.0 0.2
21/06:00pm 8.0 6.2 8.0 100 0.0 S 7 11 4 6 1026.8 1026.7 0.2
21/05:30pm 8.4 6.3 8.4 100 0.0 S 9 13 5 7 1026.6 1026.5 0.2
21/05:00pm 8.6 6.6 8.6 100 0.0 SSE 9 15 5 8 1026.3 1026.2 0.2
21/04:30pm 9.2 6.6 9.2 100 0.0 SSE 13 24 7 13 1026.1 1026.0 0.2
21/04:00pm 10.2 7.6 9.4 95 0.4 SSW 13 24 7 13 1025.8 1025.6 0.2
21/03:30pm 10.1 7.7 10.1 100 0.0 SSW 13 20 7 11 1025.7 1025.5 0.2
21/03:00pm 10.0 8.0 10.0 100 0.0 S 11 19 6 10 1025.6 1025.4 0.2
21/02:30pm 9.9 7.4 9.8 99 0.1 S 13 22 7 12 1025.6 1025.4 0.2
21/02:00pm 10.3 9.1 10.3 100 0.0 SSE 7 15 4 8 1025.6 1025.4 0.2
21/01:30pm 10.4 8.4 10.1 98 0.2 S 11 20 6 11 1025.7 1025.5 0.2
21/01:00pm 11.0 9.2 11.0 100 0.0 S 11 24 6 13 1025.7 1025.5 0.2
21/12:30pm 9.3 7.8 9.3 100 0.0 SE 7 13 4 7 1026.0 1025.9 0.2
21/12:00pm 8.9 6.2 8.9 100 0.0 ESE 13 22 7 12 1026.3 1026.2 0.2
21/11:30am 9.1 6.8 9.1 100 0.0 S 11 20 6 11 1026.5 1026.4 0.2
21/11:00am 8.7 6.7 8.7 100 0.0 SW 9 17 5 9 1026.7 1026.6 0.2
21/10:30am 8.1 6.0 8.1 100 0.0 SSW 9 15 5 8 1026.8 1026.7 0.2
21/10:00am 8.3 5.8 8.3 100 0.0 S 11 20 6 11 1026.5 1026.4 0.0
21/09:30am 7.9 6.3 7.9 100 0.0 SSE 6 9 3 5 1026.3 1026.2 0.0
21/09:00am 6.9 4.9 6.9 100 0.0 ESE 7 11 4 6 1025.9 1025.8 6.6
21/08:30am 6.7 4.2 6.7 100 0.0 SSE 9 13 5 7 1025.7 1025.5 6.2
21/08:00am 6.4 5.6 6.4 100 0.0 CALM 0 6 0 3 1025.4 1025.2 6.2
21/07:30am 6.1 4.1 6.1 100 0.0 E 6 7 3 4 1025.0 1024.8 6.0
21/07:00am 6.4 3.5 6.4 100 0.0 E 11 17 6 9 1024.5 1024.4 6.0
21/06:30am 6.6 4.1 6.6 100 0.0 E 9 13 5 7 1024.2 1024.1 6.0
21/06:00am 6.4 3.1 6.4 100 0.0 E 13 15 7 8 1023.8 1023.7 6.0
21/05:30am 6.4 4.2 6.4 100 0.0 NE 7 11 4 6 1023.6 1023.5 6.0
21/05:00am 6.5 3.2 6.5 100 0.0 E 13 19 7 10 1023.4 1023.2 6.0
21/04:30am 6.9 3.7 6.9 100 0.0 ESE 13 17 7 9 1023.2 1023.0 6.0
21/04:00am 7.0 3.8 7.0 100 0.0 ESE 13 20 7 11 1023.0 1022.8 6.0
21/03:30am 7.3 5.0 7.3 100 0.0 SSE 9 17 5 9 1023.0 1022.8 5.8
21/03:00am 7.3 4.6 7.3 100 0.0 SE 11 17 6 9 1022.8 1022.6 4.4
21/02:30am 7.4 5.1 7.4 100 0.0 SSE 9 17 5 9 1022.9 1022.7 4.4
21/02:00am 7.3 4.6 7.3 100 0.0 SE 11 19 6 10 1022.7 1022.5 4.2
21/01:30am 7.3 4.6 7.3 100 0.0 SE 11 17 6 9 1022.6 1022.4 4.2
21/01:00am 7.4 5.1 7.4 100 0.0 SSE 9 15 5 8 1022.6 1022.4 4.2
21/12:30am 7.3 5.0 7.3 100 0.0 SE 9 15 5 8 1022.3 1022.1 3.8
21/12:00am 7.5 5.6 7.5 100 0.0 SSW 7 13 4 7 1022.3 1022.1 3.8
 
Date/Time
CST
Tmp

°C
App
Tmp
°C
Dew
Point
°C
Rel
Hum
%
Delta-T

°C
Wind Press
QNH
hPa
Press
MSL
hPa
Rain
since
9 am
mm
Dir
 
Spd
km/h
Gust
km/h
Spd
kts
Gust
kts
20/11:30pm 7.4 4.3 7.4 100 0.0 ESE 13 20 7 11 1022.1 1021.9 3.6
20/11:00pm 7.6 4.6 7.6 100 0.0 SE 13 22 7 12 1022.0 1021.8 3.6
20/10:30pm 7.9 5.7 7.9 100 0.0 S 9 13 5 7 1022.1 1021.9 3.0
20/10:00pm 7.8 5.6 7.8 100 0.0 S 9 13 5 7 1022.0 1021.8 2.2
20/09:30pm 7.9 4.9 7.9 100 0.0 S 13 24 7 13 1022.0 1021.8 2.0
20/09:00pm 8.0 5.1 8.0 100 0.0 SSE 13 20 7 11 1021.6 1021.5 1.6
20/08:30pm 8.0 5.1 8.0 100 0.0 S 13 20 7 11 1021.3 1021.2 0.8
20/08:00pm 8.2 4.9 8.2 100 0.0 S 15 28 8 15 1021.1 1020.9 0.6
20/07:30pm 8.2 4.9 8.2 100 0.0 S 15 24 8 13 1020.9 1020.7 0.6
20/07:00pm 8.0 4.7 8.0 100 0.0 S 15 26 8 14 1020.6 1020.4 0.6
20/06:30pm 7.8 4.8 7.8 100 0.0 S 13 20 7 11 1020.3 1020.1 0.6
20/06:00pm 8.1 5.2 8.1 100 0.0 S 13 22 7 12 1019.9 1019.7 0.6
20/05:30pm 8.3 6.2 8.3 100 0.0 SSW 9 13 5 7 1019.5 1019.3 0.6
20/05:00pm 9.2 6.2 7.8 91 0.7 SSW 13 19 7 10 1019.2 1019.0 0.6
20/04:30pm 10.1 6.6 7.0 81 1.5 SSW 15 26 8 14 1018.9 1018.8 0.6
20/04:00pm 10.9 8.4 8.0 82 1.4 SSW 11 17 6 9 1018.5 1018.3 0.6
20/03:30pm 11.6 8.5 7.3 75 2.1 SSW 13 22 7 12 1018.3 1018.1 0.6
20/03:00pm 11.6 8.3 7.9 78 1.8 SW 15 20 8 11 1018.1 1017.9 0.6
20/02:30pm 10.3 6.9 7.5 83 1.4 SSW 15 24 8 13 1017.9 1017.7 0.6
20/02:00pm 11.9 8.2 7.8 76 2.0 SSW 17 26 9 14 1017.7 1017.5 0.6
20/01:30pm 11.7 9.2 9.6 87 1.1 SSW 13 24 7 13 1017.7 1017.5 0.6
20/01:00pm 10.0 6.0 8.9 93 0.6 SSW 20 33 11 18 1017.6 1017.4 0.6
20/12:30pm 10.1 7.7 10.1 100 0.0 SSW 13 24 7 13 1017.7 1017.5 0.6
20/12:00pm 10.1 8.5 10.1 100 0.0 SSW 9 13 5 7 1017.9 1017.7 0.6
20/11:30am 9.7 6.1 9.7 100 0.0 SSW 19 28 10 15 1018.1 1017.9 0.4
20/11:00am 10.4 7.4 9.2 92 0.6 SSW 15 20 8 11 1018.0 1017.8 0.0
20/10:30am 10.4 8.1 10.4 100 0.0 SSW 13 20 7 11 1017.8 1017.6 0.0
20/10:00am 9.9 6.7 9.9 100 0.0 SSW 17 30 9 16 1017.6 1017.4 0.0
20/09:30am 9.5 6.9 9.5 100 0.0 SSW 13 24 7 13 1017.2 1017.0 0.0
20/09:00am 9.5 7.3 9.5 100 0.0 SSW 11 20 6 11 1016.8 1016.6 5.8
20/08:30am 8.8 5.7 8.8 100 0.0 SSW 15 22 8 12 1016.4 1016.1 5.8
20/08:00am 8.9 5.4 8.9 100 0.0 SSW 17 26 9 14 1015.8 1015.6 5.8
20/07:30am 8.6 5.8 8.6 100 0.0 SW 13 17 7 9 1015.3 1015.1 5.8
20/07:00am 8.7 6.3 8.7 100 0.0 SSW 11 17 6 9 1014.8 1014.6 5.8
20/06:30am 8.8 6.1 8.8 100 0.0 SW 13 22 7 12 1014.4 1014.2 5.8
20/06:00am 8.7 5.9 8.7 100 0.0 SW 13 19 7 10 1013.9 1013.6 5.8
20/05:30am 8.6 6.2 8.6 100 0.0 SW 11 17 6 9 1013.6 1013.3 5.8
20/05:00am 9.1 6.4 9.1 100 0.0 SW 13 20 7 11 1013.1 1012.9 5.8
20/04:30am 9.4 6.4 9.4 100 0.0 SW 15 22 8 12 1012.6 1012.4 5.8
20/04:00am 9.7 6.8 9.7 100 0.0 SW 15 24 8 13 1012.4 1012.2 5.8
20/03:30am 10.2 6.7 10.2 100 0.0 WSW 19 24 10 13 1012.2 1012.0 5.8
20/03:00am 10.3 8.0 10.3 100 0.0 SW 13 20 7 11 1012.1 1011.9 5.6
20/02:30am 10.5 7.5 10.5 100 0.0 WSW 17 24 9 13 1012.0 1011.8 5.6
20/02:00am 10.5 7.8 10.5 100 0.0 SW 15 24 8 13 1011.7 1011.4 5.6
20/01:30am 10.8 6.9 10.8 100 0.0 WSW 22 39 12 21 1011.4 1011.1 5.6
20/01:00am 11.1 7.9 11.1 100 0.0 WSW 19 28 10 15 1011.1 1010.8 5.6
20/12:30am 11.3 7.5 11.3 100 0.0 WSW 22 33 12 18 1010.9 1010.6 5.6
20/12:00am 11.4 8.0 11.4 100 0.0 WSW 20 32 11 17 1010.6 1010.3 5.6
 
Date/Time
CST
Tmp

°C
App
Tmp
°C
Dew
Point
°C
Rel
Hum
%
Delta-T

°C
Wind Press
QNH
hPa
Press
MSL
hPa
Rain
since
9 am
mm
Dir
 
Spd
km/h
Gust
km/h
Spd
kts
Gust
kts
19/11:30pm 11.5 8.2 11.5 100 0.0 WSW 20 37 11 20 1010.3 1010.1 5.6
19/11:00pm 11.5 7.8 11.5 100 0.0 WSW 22 46 12 25 1010.1 1009.9 5.6

Latest Capital City Observations: Canberra | Sydney | Melbourne | Brisbane | Adelaide | Perth | Hobart | Darwin

Other Formats:

Comma delimited format used in spreadsheet applications
http://www.bom.gov.au/fwo/IDS60901/IDS60901.94683.axf

JavaScript Object Notation format (JSON) in row-major order
http://www.bom.gov.au/fwo/IDS60901/IDS60901.94683.json